sensor_id;sensor_type;location;lat;lon;timestamp;temperature;humidity
3758;DHT22;1894;51.038;13.692;2023-08-21T00:01:47;23.50;99.90
3758;DHT22;1894;51.038;13.692;2023-08-21T00:04:15;23.40;99.90
3758;DHT22;1894;51.038;13.692;2023-08-21T00:06:42;23.20;99.90
3758;DHT22;1894;51.038;13.692;2023-08-21T00:09:09;23.20;99.90
3758;DHT22;1894;51.038;13.692;2023-08-21T00:11:36;23.30;99.90
3758;DHT22;1894;51.038;13.692;2023-08-21T00:14:03;23.40;99.90
3758;DHT22;1894;51.038;13.692;2023-08-21T00:16:31;23.40;99.90
3758;DHT22;1894;51.038;13.692;2023-08-21T00:18:58;23.20;99.90
3758;DHT22;1894;51.038;13.692;2023-08-21T00:21:25;23.10;99.90
3758;DHT22;1894;51.038;13.692;2023-08-21T00:23:52;23.20;99.90
3758;DHT22;1894;51.038;13.692;2023-08-21T00:26:19;23.20;99.90
3758;DHT22;1894;51.038;13.692;2023-08-21T00:28:46;23.20;99.90
3758;DHT22;1894;51.038;13.692;2023-08-21T00:31:13;23.30;99.90
3758;DHT22;1894;51.038;13.692;2023-08-21T00:33:41;23.40;99.90
3758;DHT22;1894;51.038;13.692;2023-08-21T00:36:08;23.40;99.90
3758;DHT22;1894;51.038;13.692;2023-08-21T00:38:35;23.40;99.90
3758;DHT22;1894;51.038;13.692;2023-08-21T00:41:02;23.40;99.90
3758;DHT22;1894;51.038;13.692;2023-08-21T00:43:31;23.30;99.90
3758;DHT22;1894;51.038;13.692;2023-08-21T00:45:59;23.20;99.90
3758;DHT22;1894;51.038;13.692;2023-08-21T00:48:26;23.10;99.90
3758;DHT22;1894;51.038;13.692;2023-08-21T00:50:54;23.00;99.90
3758;DHT22;1894;51.038;13.692;2023-08-21T00:53:21;23.10;99.90
3758;DHT22;1894;51.038;13.692;2023-08-21T00:55:49;23.10;99.90
3758;DHT22;1894;51.038;13.692;2023-08-21T00:58:17;23.00;99.90
3758;DHT22;1894;51.038;13.692;2023-08-21T01:00:48;22.90;99.90
3758;DHT22;1894;51.038;13.692;2023-08-21T01:03:18;23.00;99.90
3758;DHT22;1894;51.038;13.692;2023-08-21T01:05:45;22.90;99.90
3758;DHT22;1894;51.038;13.692;2023-08-21T01:11:02;22.80;99.90
3758;DHT22;1894;51.038;13.692;2023-08-21T01:16:24;22.90;99.90
3758;DHT22;1894;51.038;13.692;2023-08-21T01:18:54;22.90;99.90
3758;DHT22;1894;51.038;13.692;2023-08-21T01:21:22;23.00;99.90
3758;DHT22;1894;51.038;13.692;2023-08-21T01:23:49;22.90;99.90
3758;DHT22;1894;51.038;13.692;2023-08-21T01:26:17;23.00;99.90
3758;DHT22;1894;51.038;13.692;2023-08-21T01:28:44;23.10;99.90
3758;DHT22;1894;51.038;13.692;2023-08-21T01:31:11;23.10;99.90
3758;DHT22;1894;51.038;13.692;2023-08-21T01:33:46;23.20;99.90
3758;DHT22;1894;51.038;13.692;2023-08-21T01:36:15;23.20;99.90
3758;DHT22;1894;51.038;13.692;2023-08-21T01:38:43;23.10;99.90
3758;DHT22;1894;51.038;13.692;2023-08-21T01:41:11;23.00;99.90
3758;DHT22;1894;51.038;13.692;2023-08-21T01:43:38;22.80;99.90
3758;DHT22;1894;51.038;13.692;2023-08-21T01:46:06;22.70;99.90
3758;DHT22;1894;51.038;13.692;2023-08-21T01:48:33;22.60;99.90
3758;DHT22;1894;51.038;13.692;2023-08-21T01:51:02;22.70;99.90
3758;DHT22;1894;51.038;13.692;2023-08-21T01:53:29;22.70;99.90
3758;DHT22;1894;51.038;13.692;2023-08-21T01:55:56;22.70;99.90
3758;DHT22;1894;51.038;13.692;2023-08-21T01:58:23;22.50;99.90
3758;DHT22;1894;51.038;13.692;2023-08-21T02:00:51;22.50;99.90
3758;DHT22;1894;51.038;13.692;2023-08-21T02:03:18;22.50;99.90
3758;DHT22;1894;51.038;13.692;2023-08-21T02:05:45;22.40;99.90
3758;DHT22;1894;51.038;13.692;2023-08-21T02:08:13;22.40;99.90
3758;DHT22;1894;51.038;13.692;2023-08-21T02:10:52;22.30;99.90
3758;DHT22;1894;51.038;13.692;2023-08-21T02:13:19;22.20;99.90
3758;DHT22;1894;51.038;13.692;2023-08-21T02:15:47;22.20;99.90
3758;DHT22;1894;51.038;13.692;2023-08-21T02:18:14;22.10;99.90
3758;DHT22;1894;51.038;13.692;2023-08-21T02:20:41;22.10;99.90
3758;DHT22;1894;51.038;13.692;2023-08-21T02:23:09;22.10;99.90
3758;DHT22;1894;51.038;13.692;2023-08-21T02:25:36;22.20;99.90
3758;DHT22;1894;51.038;13.692;2023-08-21T02:28:04;22.20;99.90
3758;DHT22;1894;51.038;13.692;2023-08-21T02:30:31;22.20;99.90
3758;DHT22;1894;51.038;13.692;2023-08-21T02:32:58;22.10;99.90
3758;DHT22;1894;51.038;13.692;2023-08-21T02:35:26;22.00;99.90
3758;DHT22;1894;51.038;13.692;2023-08-21T02:37:53;22.00;99.90
3758;DHT22;1894;51.038;13.692;2023-08-21T02:40:20;22.10;99.90
3758;DHT22;1894;51.038;13.692;2023-08-21T02:42:48;22.10;99.90
3758;DHT22;1894;51.038;13.692;2023-08-21T02:45:15;22.10;99.90
3758;DHT22;1894;51.038;13.692;2023-08-21T02:47:43;22.00;99.90
3758;DHT22;1894;51.038;13.692;2023-08-21T02:50:11;22.10;99.90
3758;DHT22;1894;51.038;13.692;2023-08-21T02:52:38;22.00;99.90
3758;DHT22;1894;51.038;13.692;2023-08-21T02:55:07;22.00;99.90
3758;DHT22;1894;51.038;13.692;2023-08-21T02:57:35;21.90;99.90
3758;DHT22;1894;51.038;13.692;2023-08-21T03:00:03;21.90;99.90
3758;DHT22;1894;51.038;13.692;2023-08-21T03:02:31;22.00;99.90
3758;DHT22;1894;51.038;13.692;2023-08-21T03:05:00;21.90;99.90
3758;DHT22;1894;51.038;13.692;2023-08-21T03:07:27;21.70;99.90
3758;DHT22;1894;51.038;13.692;2023-08-21T03:09:54;21.80;99.90
3758;DHT22;1894;51.038;13.692;2023-08-21T03:12:21;21.90;99.90
3758;DHT22;1894;51.038;13.692;2023-08-21T03:14:48;22.00;99.90
3758;DHT22;1894;51.038;13.692;2023-08-21T03:17:16;22.00;99.90
3758;DHT22;1894;51.038;13.692;2023-08-21T03:19:43;21.90;99.90
3758;DHT22;1894;51.038;13.692;2023-08-21T03:22:10;22.00;99.90
3758;DHT22;1894;51.038;13.692;2023-08-21T03:24:37;22.20;99.90
3758;DHT22;1894;51.038;13.692;2023-08-21T03:27:04;22.20;99.90
3758;DHT22;1894;51.038;13.692;2023-08-21T03:29:32;22.30;99.90
3758;DHT22;1894;51.038;13.692;2023-08-21T03:31:59;22.40;99.90
3758;DHT22;1894;51.038;13.692;2023-08-21T03:34:26;22.40;99.90
3758;DHT22;1894;51.038;13.692;2023-08-21T03:36:58;22.40;99.90
3758;DHT22;1894;51.038;13.692;2023-08-21T03:39:29;22.20;99.90
3758;DHT22;1894;51.038;13.692;2023-08-21T03:41:56;22.10;99.90
3758;DHT22;1894;51.038;13.692;2023-08-21T03:44:23;21.90;99.90
3758;DHT22;1894;51.038;13.692;2023-08-21T03:46:50;21.90;99.90
3758;DHT22;1894;51.038;13.692;2023-08-21T03:49:18;21.90;99.90
3758;DHT22;1894;51.038;13.692;2023-08-21T03:51:48;22.00;99.90
3758;DHT22;1894;51.038;13.692;2023-08-21T03:54:15;21.90;99.90
3758;DHT22;1894;51.038;13.692;2023-08-21T03:56:42;21.80;99.90
3758;DHT22;1894;51.038;13.692;2023-08-21T03:59:09;21.80;99.90
3758;DHT22;1894;51.038;13.692;2023-08-21T04:01:37;21.80;99.90
3758;DHT22;1894;51.038;13.692;2023-08-21T04:04:04;21.70;99.90
3758;DHT22;1894;51.038;13.692;2023-08-21T04:06:32;21.60;99.90
3758;DHT22;1894;51.038;13.692;2023-08-21T04:08:59;21.70;99.90
3758;DHT22;1894;51.038;13.692;2023-08-21T04:11:26;21.60;99.90
3758;DHT22;1894;51.038;13.692;2023-08-21T04:13:55;21.60;99.90
3758;DHT22;1894;51.038;13.692;2023-08-21T04:16:22;21.60;99.90
3758;DHT22;1894;51.038;13.692;2023-08-21T04:18:49;21.60;99.90
3758;DHT22;1894;51.038;13.692;2023-08-21T04:21:20;21.60;99.90
3758;DHT22;1894;51.038;13.692;2023-08-21T04:23:50;21.50;99.90
3758;DHT22;1894;51.038;13.692;2023-08-21T04:26:18;21.50;99.90
3758;DHT22;1894;51.038;13.692;2023-08-21T04:28:45;21.50;99.90
3758;DHT22;1894;51.038;13.692;2023-08-21T04:31:13;21.50;99.90
3758;DHT22;1894;51.038;13.692;2023-08-21T04:33:41;21.40;99.90
3758;DHT22;1894;51.038;13.692;2023-08-21T04:36:14;21.40;99.90
3758;DHT22;1894;51.038;13.692;2023-08-21T04:38:46;21.30;99.90
3758;DHT22;1894;51.038;13.692;2023-08-21T04:41:13;21.30;99.90
3758;DHT22;1894;51.038;13.692;2023-08-21T04:43:44;21.20;99.90
3758;DHT22;1894;51.038;13.692;2023-08-21T04:46:11;21.10;99.90
3758;DHT22;1894;51.038;13.692;2023-08-21T04:48:41;21.10;99.90
3758;DHT22;1894;51.038;13.692;2023-08-21T04:51:08;21.20;99.90
3758;DHT22;1894;51.038;13.692;2023-08-21T04:53:36;21.30;99.90
3758;DHT22;1894;51.038;13.692;2023-08-21T04:56:07;21.30;99.90
3758;DHT22;1894;51.038;13.692;2023-08-21T04:58:35;21.30;99.90
3758;DHT22;1894;51.038;13.692;2023-08-21T05:01:04;21.30;99.90
3758;DHT22;1894;51.038;13.692;2023-08-21T05:03:36;21.50;99.90
3758;DHT22;1894;51.038;13.692;2023-08-21T05:06:04;21.50;99.90
3758;DHT22;1894;51.038;13.692;2023-08-21T05:08:33;21.50;99.90
3758;DHT22;1894;51.038;13.692;2023-08-21T05:11:03;21.50;99.90
3758;DHT22;1894;51.038;13.692;2023-08-21T05:13:33;21.70;99.90
3758;DHT22;1894;51.038;13.692;2023-08-21T05:16:00;21.60;99.90
3758;DHT22;1894;51.038;13.692;2023-08-21T05:18:33;21.70;99.90
3758;DHT22;1894;51.038;13.692;2023-08-21T05:21:00;21.90;99.90
3758;DHT22;1894;51.038;13.692;2023-08-21T05:23:28;22.00;99.90
3758;DHT22;1894;51.038;13.692;2023-08-21T05:26:00;22.20;99.90
3758;DHT22;1894;51.038;13.692;2023-08-21T05:28:27;22.40;99.90
3758;DHT22;1894;51.038;13.692;2023-08-21T05:30:56;22.30;99.90
3758;DHT22;1894;51.038;13.692;2023-08-21T05:33:27;22.30;99.90
3758;DHT22;1894;51.038;13.692;2023-08-21T05:35:56;22.30;99.90
3758;DHT22;1894;51.038;13.692;2023-08-21T05:38:24;22.50;99.90
3758;DHT22;1894;51.038;13.692;2023-08-21T05:40:51;22.50;99.90
3758;DHT22;1894;51.038;13.692;2023-08-21T05:43:18;22.60;99.90
3758;DHT22;1894;51.038;13.692;2023-08-21T05:45:46;22.70;99.90
3758;DHT22;1894;51.038;13.692;2023-08-21T05:48:15;22.80;99.90
3758;DHT22;1894;51.038;13.692;2023-08-21T05:50:43;23.00;99.90
3758;DHT22;1894;51.038;13.692;2023-08-21T05:53:11;23.10;99.90
3758;DHT22;1894;51.038;13.692;2023-08-21T05:55:38;23.10;99.90
3758;DHT22;1894;51.038;13.692;2023-08-21T05:58:05;23.30;99.90
3758;DHT22;1894;51.038;13.692;2023-08-21T06:00:33;23.30;99.90
3758;DHT22;1894;51.038;13.692;2023-08-21T06:03:03;23.50;99.90
3758;DHT22;1894;51.038;13.692;2023-08-21T06:05:49;23.60;99.90
3758;DHT22;1894;51.038;13.692;2023-08-21T06:08:16;23.80;99.90
3758;DHT22;1894;51.038;13.692;2023-08-21T06:10:43;24.10;99.90
3758;DHT22;1894;51.038;13.692;2023-08-21T06:13:11;24.20;99.90
3758;DHT22;1894;51.038;13.692;2023-08-21T06:15:38;24.40;99.90
3758;DHT22;1894;51.038;13.692;2023-08-21T06:18:05;24.60;99.90
3758;DHT22;1894;51.038;13.692;2023-08-21T06:20:33;24.80;99.90
3758;DHT22;1894;51.038;13.692;2023-08-21T06:23:00;25.00;99.90
3758;DHT22;1894;51.038;13.692;2023-08-21T06:25:27;25.20;99.90
3758;DHT22;1894;51.038;13.692;2023-08-21T06:27:57;25.40;99.90
3758;DHT22;1894;51.038;13.692;2023-08-21T06:30:28;25.80;99.90
3758;DHT22;1894;51.038;13.692;2023-08-21T06:32:56;26.10;99.90
3758;DHT22;1894;51.038;13.692;2023-08-21T06:35:25;26.20;99.90
3758;DHT22;1894;51.038;13.692;2023-08-21T06:37:52;25.90;99.90
3758;DHT22;1894;51.038;13.692;2023-08-21T06:40:21;25.80;99.90
3758;DHT22;1894;51.038;13.692;2023-08-21T06:42:48;25.60;99.90
3758;DHT22;1894;51.038;13.692;2023-08-21T06:45:20;25.70;99.90
3758;DHT22;1894;51.038;13.692;2023-08-21T06:47:47;26.00;99.90
3758;DHT22;1894;51.038;13.692;2023-08-21T06:50:17;26.30;99.90
3758;DHT22;1894;51.038;13.692;2023-08-21T06:52:44;26.20;99.90
3758;DHT22;1894;51.038;13.692;2023-08-21T06:55:11;26.20;99.90
3758;DHT22;1894;51.038;13.692;2023-08-21T06:57:39;25.90;99.90
3758;DHT22;1894;51.038;13.692;2023-08-21T07:00:07;26.00;99.90
3758;DHT22;1894;51.038;13.692;2023-08-21T07:02:34;25.90;99.90
3758;DHT22;1894;51.038;13.692;2023-08-21T07:05:02;25.80;99.90
3758;DHT22;1894;51.038;13.692;2023-08-21T07:07:30;26.00;99.90
3758;DHT22;1894;51.038;13.692;2023-08-21T07:09:57;26.60;99.90
3758;DHT22;1894;51.038;13.692;2023-08-21T07:12:25;27.00;99.90
3758;DHT22;1894;51.038;13.692;2023-08-21T07:14:52;27.10;99.90
3758;DHT22;1894;51.038;13.692;2023-08-21T07:17:22;27.10;99.90
3758;DHT22;1894;51.038;13.692;2023-08-21T07:19:49;27.00;99.90
3758;DHT22;1894;51.038;13.692;2023-08-21T07:22:19;26.80;99.90
3758;DHT22;1894;51.038;13.692;2023-08-21T07:24:47;26.90;99.90
3758;DHT22;1894;51.038;13.692;2023-08-21T07:27:15;26.80;99.90
3758;DHT22;1894;51.038;13.692;2023-08-21T07:29:42;26.60;99.90
3758;DHT22;1894;51.038;13.692;2023-08-21T07:32:10;26.60;99.90
3758;DHT22;1894;51.038;13.692;2023-08-21T07:34:37;26.60;99.90
3758;DHT22;1894;51.038;13.692;2023-08-21T07:37:06;26.60;99.90
3758;DHT22;1894;51.038;13.692;2023-08-21T07:39:35;26.80;99.90
3758;DHT22;1894;51.038;13.692;2023-08-21T07:42:02;27.00;99.90
3758;DHT22;1894;51.038;13.692;2023-08-21T07:44:30;26.90;99.90
3758;DHT22;1894;51.038;13.692;2023-08-21T07:46:57;27.10;99.90
3758;DHT22;1894;51.038;13.692;2023-08-21T07:49:24;27.30;99.90
3758;DHT22;1894;51.038;13.692;2023-08-21T07:51:52;27.40;99.90
3758;DHT22;1894;51.038;13.692;2023-08-21T07:54:19;27.50;99.90
3758;DHT22;1894;51.038;13.692;2023-08-21T07:56:46;27.50;99.90
3758;DHT22;1894;51.038;13.692;2023-08-21T07:59:14;27.60;99.90
3758;DHT22;1894;51.038;13.692;2023-08-21T08:01:41;27.60;99.90
3758;DHT22;1894;51.038;13.692;2023-08-21T08:04:09;27.80;99.90
3758;DHT22;1894;51.038;13.692;2023-08-21T08:06:37;27.90;99.90
3758;DHT22;1894;51.038;13.692;2023-08-21T08:09:05;28.10;99.90
3758;DHT22;1894;51.038;13.692;2023-08-21T08:11:32;27.70;99.90
3758;DHT22;1894;51.038;13.692;2023-08-21T08:14:00;27.40;99.90
3758;DHT22;1894;51.038;13.692;2023-08-21T08:16:27;27.30;99.90
3758;DHT22;1894;51.038;13.692;2023-08-21T08:18:54;27.40;99.90
3758;DHT22;1894;51.038;13.692;2023-08-21T08:21:22;27.40;99.90
3758;DHT22;1894;51.038;13.692;2023-08-21T08:23:49;27.80;99.90
3758;DHT22;1894;51.038;13.692;2023-08-21T08:26:16;27.90;99.90
3758;DHT22;1894;51.038;13.692;2023-08-21T08:28:44;27.90;99.90
3758;DHT22;1894;51.038;13.692;2023-08-21T08:31:16;27.60;99.90
3758;DHT22;1894;51.038;13.692;2023-08-21T08:33:44;27.60;99.90
3758;DHT22;1894;51.038;13.692;2023-08-21T08:36:12;27.80;99.90
3758;DHT22;1894;51.038;13.692;2023-08-21T08:38:42;27.50;99.90
3758;DHT22;1894;51.038;13.692;2023-08-21T08:41:14;27.60;99.90
3758;DHT22;1894;51.038;13.692;2023-08-21T08:43:46;27.80;99.90
3758;DHT22;1894;51.038;13.692;2023-08-21T08:46:14;27.80;99.90
3758;DHT22;1894;51.038;13.692;2023-08-21T08:48:42;27.90;99.90
3758;DHT22;1894;51.038;13.692;2023-08-21T08:51:09;27.90;99.90
3758;DHT22;1894;51.038;13.692;2023-08-21T08:53:37;28.10;99.90
3758;DHT22;1894;51.038;13.692;2023-08-21T08:56:04;28.20;99.90
3758;DHT22;1894;51.038;13.692;2023-08-21T08:58:31;28.30;99.90
3758;DHT22;1894;51.038;13.692;2023-08-21T09:00:59;27.80;99.90
3758;DHT22;1894;51.038;13.692;2023-08-21T09:03:28;28.20;99.90
3758;DHT22;1894;51.038;13.692;2023-08-21T09:05:56;28.30;99.90
3758;DHT22;1894;51.038;13.692;2023-08-21T09:08:27;28.40;99.90
3758;DHT22;1894;51.038;13.692;2023-08-21T09:10:54;28.60;99.90
3758;DHT22;1894;51.038;13.692;2023-08-21T09:13:21;28.80;99.90
3758;DHT22;1894;51.038;13.692;2023-08-21T09:15:53;28.90;99.90
3758;DHT22;1894;51.038;13.692;2023-08-21T09:18:22;29.20;99.90
3758;DHT22;1894;51.038;13.692;2023-08-21T09:20:49;29.20;99.90
3758;DHT22;1894;51.038;13.692;2023-08-21T09:23:18;29.20;99.90
3758;DHT22;1894;51.038;13.692;2023-08-21T09:25:47;29.40;99.90
3758;DHT22;1894;51.038;13.692;2023-08-21T09:28:19;29.60;99.90
3758;DHT22;1894;51.038;13.692;2023-08-21T09:30:55;30.00;99.90
3758;DHT22;1894;51.038;13.692;2023-08-21T09:33:25;30.20;99.90
3758;DHT22;1894;51.038;13.692;2023-08-21T09:35:53;30.40;99.90
3758;DHT22;1894;51.038;13.692;2023-08-21T09:38:22;30.50;99.90
3758;DHT22;1894;51.038;13.692;2023-08-21T09:40:53;30.60;99.90
3758;DHT22;1894;51.038;13.692;2023-08-21T09:43:26;30.40;99.90
3758;DHT22;1894;51.038;13.692;2023-08-21T09:45:54;29.90;99.90
3758;DHT22;1894;51.038;13.692;2023-08-21T09:48:23;30.30;99.90
3758;DHT22;1894;51.038;13.692;2023-08-21T09:50:54;30.70;99.90
3758;DHT22;1894;51.038;13.692;2023-08-21T09:53:23;30.60;99.90
3758;DHT22;1894;51.038;13.692;2023-08-21T09:55:55;30.80;99.90
3758;DHT22;1894;51.038;13.692;2023-08-21T09:58:23;30.60;99.90
3758;DHT22;1894;51.038;13.692;2023-08-21T10:00:51;30.60;99.90
3758;DHT22;1894;51.038;13.692;2023-08-21T10:03:24;30.60;99.90
3758;DHT22;1894;51.038;13.692;2023-08-21T10:05:56;30.50;99.90
3758;DHT22;1894;51.038;13.692;2023-08-21T10:08:25;30.40;99.90
3758;DHT22;1894;51.038;13.692;2023-08-21T10:10:55;29.90;99.90
3758;DHT22;1894;51.038;13.692;2023-08-21T10:13:23;30.40;99.90
3758;DHT22;1894;51.038;13.692;2023-08-21T10:15:50;30.40;99.90
3758;DHT22;1894;51.038;13.692;2023-08-21T10:18:22;31.00;99.90
3758;DHT22;1894;51.038;13.692;2023-08-21T10:20:52;30.80;99.90
3758;DHT22;1894;51.038;13.692;2023-08-21T10:23:30;31.40;99.90
3758;DHT22;1894;51.038;13.692;2023-08-21T10:25:59;31.60;99.90
3758;DHT22;1894;51.038;13.692;2023-08-21T10:31:40;32.40;99.90
3758;DHT22;1894;51.038;13.692;2023-08-21T10:34:13;31.80;99.90
3758;DHT22;1894;51.038;13.692;2023-08-21T10:50:17;30.70;99.90
3758;DHT22;1894;51.038;13.692;2023-08-21T10:52:45;30.80;99.90
3758;DHT22;1894;51.038;13.692;2023-08-21T10:55:16;30.70;99.90
3758;DHT22;1894;51.038;13.692;2023-08-21T10:57:47;30.80;99.90
3758;DHT22;1894;51.038;13.692;2023-08-21T11:00:19;30.80;99.90
3758;DHT22;1894;51.038;13.692;2023-08-21T11:02:49;30.70;99.90
3758;DHT22;1894;51.038;13.692;2023-08-21T11:05:17;30.90;99.90
3758;DHT22;1894;51.038;13.692;2023-08-21T11:07:46;31.10;99.90
3758;DHT22;1894;51.038;13.692;2023-08-21T11:10:16;31.20;99.90
3758;DHT22;1894;51.038;13.692;2023-08-21T11:12:53;31.30;99.90
3758;DHT22;1894;51.038;13.692;2023-08-21T11:15:24;31.00;99.90
3758;DHT22;1894;51.038;13.692;2023-08-21T11:20:35;31.20;99.90
3758;DHT22;1894;51.038;13.692;2023-08-21T11:23:05;31.10;99.90
3758;DHT22;1894;51.038;13.692;2023-08-21T11:25:40;31.20;99.90
3758;DHT22;1894;51.038;13.692;2023-08-21T11:28:08;31.00;99.90
3758;DHT22;1894;51.038;13.692;2023-08-21T11:30:35;30.90;99.90
3758;DHT22;1894;51.038;13.692;2023-08-21T11:33:11;31.00;99.90
3758;DHT22;1894;51.038;13.692;2023-08-21T11:35:40;31.40;99.90
3758;DHT22;1894;51.038;13.692;2023-08-21T11:38:21;31.30;99.90
3758;DHT22;1894;51.038;13.692;2023-08-21T11:40:59;31.60;99.90
3758;DHT22;1894;51.038;13.692;2023-08-21T11:43:43;32.10;99.90
3758;DHT22;1894;51.038;13.692;2023-08-21T11:46:10;32.30;99.90
3758;DHT22;1894;51.038;13.692;2023-08-21T11:48:39;31.50;99.90
3758;DHT22;1894;51.038;13.692;2023-08-21T11:51:07;32.50;99.90
3758;DHT22;1894;51.038;13.692;2023-08-21T11:53:41;33.40;99.90
3758;DHT22;1894;51.038;13.692;2023-08-21T11:56:16;33.70;99.90
3758;DHT22;1894;51.038;13.692;2023-08-21T11:58:46;35.50;99.90
3758;DHT22;1894;51.038;13.692;2023-08-21T12:01:17;37.50;97.90
3758;DHT22;1894;51.038;13.692;2023-08-21T12:03:45;37.90;95.00
3758;DHT22;1894;51.038;13.692;2023-08-21T12:06:13;39.30;93.70
3758;DHT22;1894;51.038;13.692;2023-08-21T12:08:40;39.90;92.00
3758;DHT22;1894;51.038;13.692;2023-08-21T12:11:07;39.50;91.20
3758;DHT22;1894;51.038;13.692;2023-08-21T12:13:35;40.10;91.00
3758;DHT22;1894;51.038;13.692;2023-08-21T12:16:03;42.10;82.50
3758;DHT22;1894;51.038;13.692;2023-08-21T12:18:31;42.80;77.30
3758;DHT22;1894;51.038;13.692;2023-08-21T12:20:58;42.40;74.90
3758;DHT22;1894;51.038;13.692;2023-08-21T12:23:26;42.70;72.20
3758;DHT22;1894;51.038;13.692;2023-08-21T12:25:53;42.70;70.20
3758;DHT22;1894;51.038;13.692;2023-08-21T12:28:20;43.80;66.60
3758;DHT22;1894;51.038;13.692;2023-08-21T12:30:47;44.20;64.00
3758;DHT22;1894;51.038;13.692;2023-08-21T12:33:14;43.90;63.60
3758;DHT22;1894;51.038;13.692;2023-08-21T12:35:50;43.50;62.80
3758;DHT22;1894;51.038;13.692;2023-08-21T12:38:17;41.80;65.50
3758;DHT22;1894;51.038;13.692;2023-08-21T12:40:44;43.60;61.70
3758;DHT22;1894;51.038;13.692;2023-08-21T12:43:12;44.50;61.60
3758;DHT22;1894;51.038;13.692;2023-08-21T12:45:39;45.30;58.20
3758;DHT22;1894;51.038;13.692;2023-08-21T12:48:06;45.00;56.50
3758;DHT22;1894;51.038;13.692;2023-08-21T12:50:33;44.40;57.20
3758;DHT22;1894;51.038;13.692;2023-08-21T12:53:00;44.90;56.10
3758;DHT22;1894;51.038;13.692;2023-08-21T12:55:30;45.10;54.50
3758;DHT22;1894;51.038;13.692;2023-08-21T12:57:58;44.70;54.90
3758;DHT22;1894;51.038;13.692;2023-08-21T13:00:25;45.40;54.60
3758;DHT22;1894;51.038;13.692;2023-08-21T13:02:52;45.60;53.10
3758;DHT22;1894;51.038;13.692;2023-08-21T13:05:19;43.90;52.90
3758;DHT22;1894;51.038;13.692;2023-08-21T13:07:47;43.50;53.90
3758;DHT22;1894;51.038;13.692;2023-08-21T13:10:14;42.30;55.10
3758;DHT22;1894;51.038;13.692;2023-08-21T13:12:41;43.20;54.30
3758;DHT22;1894;51.038;13.692;2023-08-21T13:15:09;43.00;54.80
3758;DHT22;1894;51.038;13.692;2023-08-21T13:17:36;44.30;52.60
3758;DHT22;1894;51.038;13.692;2023-08-21T13:20:04;44.20;52.10
3758;DHT22;1894;51.038;13.692;2023-08-21T13:22:45;45.00;52.10
3758;DHT22;1894;51.038;13.692;2023-08-21T13:25:21;45.30;51.60
3758;DHT22;1894;51.038;13.692;2023-08-21T13:27:51;45.60;49.70
3758;DHT22;1894;51.038;13.692;2023-08-21T13:30:19;45.80;49.30
3758;DHT22;1894;51.038;13.692;2023-08-21T13:32:47;46.30;48.20
3758;DHT22;1894;51.038;13.692;2023-08-21T13:35:14;45.50;48.70
3758;DHT22;1894;51.038;13.692;2023-08-21T13:37:42;45.10;48.90
3758;DHT22;1894;51.038;13.692;2023-08-21T13:40:09;44.60;50.20
3758;DHT22;1894;51.038;13.692;2023-08-21T13:42:44;46.50;46.90
3758;DHT22;1894;51.038;13.692;2023-08-21T13:45:13;46.80;46.70
3758;DHT22;1894;51.038;13.692;2023-08-21T13:47:44;46.00;46.30
3758;DHT22;1894;51.038;13.692;2023-08-21T13:50:16;45.60;46.10
3758;DHT22;1894;51.038;13.692;2023-08-21T13:52:46;45.80;46.40
3758;DHT22;1894;51.038;13.692;2023-08-21T13:55:14;46.20;46.10
3758;DHT22;1894;51.038;13.692;2023-08-21T13:57:43;45.60;45.80
3758;DHT22;1894;51.038;13.692;2023-08-21T14:00:11;44.80;45.30
3758;DHT22;1894;51.038;13.692;2023-08-21T14:02:40;42.80;47.20
3758;DHT22;1894;51.038;13.692;2023-08-21T14:05:09;43.30;47.50
3758;DHT22;1894;51.038;13.692;2023-08-21T14:07:38;43.90;47.30
3758;DHT22;1894;51.038;13.692;2023-08-21T14:10:07;43.90;46.50
3758;DHT22;1894;51.038;13.692;2023-08-21T14:12:35;41.40;48.70
3758;DHT22;1894;51.038;13.692;2023-08-21T14:15:10;39.20;51.60
3758;DHT22;1894;51.038;13.692;2023-08-21T14:17:38;37.40;54.80
3758;DHT22;1894;51.038;13.692;2023-08-21T14:20:06;37.00;56.60
3758;DHT22;1894;51.038;13.692;2023-08-21T14:22:34;39.30;53.60
3758;DHT22;1894;51.038;13.692;2023-08-21T14:25:01;41.30;51.00
3758;DHT22;1894;51.038;13.692;2023-08-21T14:27:30;42.90;48.40
3758;DHT22;1894;51.038;13.692;2023-08-21T14:29:58;44.50;47.10
3758;DHT22;1894;51.038;13.692;2023-08-21T14:32:26;45.40;46.50
3758;DHT22;1894;51.038;13.692;2023-08-21T14:34:53;44.40;46.90
3758;DHT22;1894;51.038;13.692;2023-08-21T14:37:21;45.10;46.40
3758;DHT22;1894;51.038;13.692;2023-08-21T14:39:50;46.60;45.40
3758;DHT22;1894;51.038;13.692;2023-08-21T14:42:17;46.90;45.50
3758;DHT22;1894;51.038;13.692;2023-08-21T14:44:45;46.20;44.60
3758;DHT22;1894;51.038;13.692;2023-08-21T14:47:13;47.00;45.00
3758;DHT22;1894;51.038;13.692;2023-08-21T14:49:40;47.30;43.50
3758;DHT22;1894;51.038;13.692;2023-08-21T14:52:07;47.80;44.00
3758;DHT22;1894;51.038;13.692;2023-08-21T14:54:35;47.90;41.70
3758;DHT22;1894;51.038;13.692;2023-08-21T14:57:02;45.90;42.50
3758;DHT22;1894;51.038;13.692;2023-08-21T14:59:30;45.70;44.20
3758;DHT22;1894;51.038;13.692;2023-08-21T15:01:58;46.60;43.20
3758;DHT22;1894;51.038;13.692;2023-08-21T15:04:25;46.60;43.00
3758;DHT22;1894;51.038;13.692;2023-08-21T15:06:52;47.40;43.00
3758;DHT22;1894;51.038;13.692;2023-08-21T15:09:20;46.10;43.60
3758;DHT22;1894;51.038;13.692;2023-08-21T15:11:47;43.30;46.60
3758;DHT22;1894;51.038;13.692;2023-08-21T15:14:14;41.00;48.40
3758;DHT22;1894;51.038;13.692;2023-08-21T15:16:42;39.30;51.00
3758;DHT22;1894;51.038;13.692;2023-08-21T15:19:09;38.10;53.20
3758;DHT22;1894;51.038;13.692;2023-08-21T15:21:36;37.30;54.40
3758;DHT22;1894;51.038;13.692;2023-08-21T15:24:07;36.50;56.10
3758;DHT22;1894;51.038;13.692;2023-08-21T15:26:34;35.90;57.40
3758;DHT22;1894;51.038;13.692;2023-08-21T15:29:01;35.70;58.90
3758;DHT22;1894;51.038;13.692;2023-08-21T15:31:30;35.80;59.30
3758;DHT22;1894;51.038;13.692;2023-08-21T15:33:57;35.70;59.20
3758;DHT22;1894;51.038;13.692;2023-08-21T15:36:24;35.30;59.90
3758;DHT22;1894;51.038;13.692;2023-08-21T15:38:51;35.00;60.50
3758;DHT22;1894;51.038;13.692;2023-08-21T15:41:18;34.80;61.20
3758;DHT22;1894;51.038;13.692;2023-08-21T15:43:46;35.00;59.80
3758;DHT22;1894;51.038;13.692;2023-08-21T15:46:13;35.40;59.40
3758;DHT22;1894;51.038;13.692;2023-08-21T15:48:40;35.20;59.20
3758;DHT22;1894;51.038;13.692;2023-08-21T15:51:07;34.70;60.30
3758;DHT22;1894;51.038;13.692;2023-08-21T15:53:34;34.60;60.70
3758;DHT22;1894;51.038;13.692;2023-08-21T15:56:02;34.40;61.30
3758;DHT22;1894;51.038;13.692;2023-08-21T15:58:29;34.30;61.80
3758;DHT22;1894;51.038;13.692;2023-08-21T16:00:57;34.00;63.40
3758;DHT22;1894;51.038;13.692;2023-08-21T16:03:27;34.90;63.60
3758;DHT22;1894;51.038;13.692;2023-08-21T16:05:55;36.50;60.60
3758;DHT22;1894;51.038;13.692;2023-08-21T16:08:22;36.50;59.80
3758;DHT22;1894;51.038;13.692;2023-08-21T16:10:49;38.50;58.30
3758;DHT22;1894;51.038;13.692;2023-08-21T16:13:17;39.20;56.10
3758;DHT22;1894;51.038;13.692;2023-08-21T16:15:46;40.50;54.20
3758;DHT22;1894;51.038;13.692;2023-08-21T16:18:14;41.60;52.50